createdAt,value
2023-03-05T00:01:35.500Z,6.70
2023-03-05T00:04:05.417Z,6.70
2023-03-05T00:06:34.230Z,6.60
2023-03-05T00:09:02.510Z,6.60
2023-03-05T00:11:31.832Z,6.60
2023-03-05T00:14:01.964Z,6.60
2023-03-05T00:16:30.079Z,6.60
2023-03-05T00:18:59.857Z,6.60
2023-03-05T00:21:38.438Z,6.70
2023-03-05T00:24:12.991Z,6.70
2023-03-05T00:26:41.350Z,6.70
2023-03-05T00:29:09.893Z,6.70
2023-03-05T00:31:38.464Z,6.70
2023-03-05T00:34:12.959Z,6.70
2023-03-05T00:36:43.087Z,6.70
2023-03-05T00:39:14.600Z,6.70
2023-03-05T00:41:42.446Z,6.70
2023-03-05T00:44:10.601Z,6.70
2023-03-05T00:46:38.703Z,6.70
2023-03-05T00:49:07.423Z,6.70
2023-03-05T00:51:35.321Z,6.50
2023-03-05T00:54:04.231Z,6.60
2023-03-05T00:56:32.348Z,6.60
2023-03-05T00:59:00.582Z,6.50
2023-03-05T01:01:29.328Z,6.50
2023-03-05T01:03:59.450Z,6.60
2023-03-05T01:06:27.532Z,6.60
2023-03-05T01:08:56.576Z,6.60
2023-03-05T01:11:24.787Z,6.60
2023-03-05T01:13:53.012Z,6.60
2023-03-05T01:16:20.867Z,6.60
2023-03-05T01:18:48.947Z,6.60
2023-03-05T01:21:16.754Z,6.60
2023-03-05T01:23:44.838Z,6.60
2023-03-05T01:26:13.206Z,6.60
2023-03-05T01:28:41.874Z,6.60
2023-03-05T01:31:10.865Z,6.60
2023-03-05T01:33:40.224Z,6.60
2023-03-05T01:36:15.953Z,6.60
2023-03-05T01:38:47.539Z,6.60
2023-03-05T01:41:17.398Z,6.60
2023-03-05T01:43:47.458Z,6.60
2023-03-05T01:46:38.160Z,6.50
2023-03-05T01:49:08.913Z,6.50
2023-03-05T01:52:02.655Z,6.50
2023-03-05T01:54:45.398Z,6.50
2023-03-05T01:57:21.498Z,6.50
2023-03-05T01:59:53.972Z,6.50
2023-03-05T02:02:22.333Z,6.40
2023-03-05T02:04:59.301Z,6.40
2023-03-05T02:07:28.078Z,6.50
2023-03-05T02:09:56.147Z,6.50
2023-03-05T02:12:24.326Z,6.40
2023-03-05T02:14:59.249Z,6.40
2023-03-05T02:17:28.469Z,6.50
2023-03-05T02:20:04.998Z,6.40
2023-03-05T02:22:32.815Z,6.40
2023-03-05T02:25:00.969Z,6.40
2023-03-05T02:27:36.115Z,6.40
2023-03-05T02:30:04.666Z,6.40
2023-03-05T02:32:32.667Z,6.40
2023-03-05T02:35:01.015Z,6.40
2023-03-05T02:37:29.116Z,6.40
2023-03-05T02:39:57.090Z,6.40
2023-03-05T02:42:25.274Z,6.40
2023-03-05T02:44:53.737Z,6.40
2023-03-05T02:47:21.482Z,6.40
2023-03-05T02:49:49.838Z,6.40
2023-03-05T02:52:19.012Z,6.30
2023-03-05T02:54:47.185Z,6.30
2023-03-05T02:57:15.167Z,6.30
2023-03-05T02:59:43.372Z,6.20
2023-03-05T03:02:11.206Z,6.20
2023-03-05T03:04:39.396Z,6.20
2023-03-05T03:07:12.318Z,6.20
2023-03-05T03:09:40.928Z,6.20
2023-03-05T03:12:09.982Z,6.20
2023-03-05T03:14:41.410Z,6.20
2023-03-05T03:17:12.327Z,6.20
2023-03-05T03:19:41.663Z,6.20
2023-03-05T03:22:10.595Z,6.20
2023-03-05T03:24:39.910Z,6.20
2023-03-05T03:27:08.213Z,6.20
2023-03-05T03:29:37.186Z,6.20
2023-03-05T03:32:05.391Z,6.20
2023-03-05T03:34:33.373Z,6.20
2023-03-05T03:37:01.823Z,6.20
2023-03-05T03:39:30.107Z,6.20
2023-03-05T03:41:57.966Z,6.20
2023-03-05T03:44:25.987Z,6.10
2023-03-05T03:46:54.842Z,6.10
2023-03-05T03:49:25.233Z,6.20
2023-03-05T03:51:54.797Z,6.20
2023-03-05T03:54:25.674Z,6.10
2023-03-05T03:56:53.382Z,6.10
2023-03-05T03:59:21.480Z,6.10
2023-03-05T04:01:49.367Z,6.10
2023-03-05T04:04:18.040Z,6.10
2023-03-05T04:06:45.965Z,6.10
2023-03-05T04:09:13.935Z,6.00
2023-03-05T04:11:41.990Z,6.00
2023-03-05T04:14:10.051Z,6.00
2023-03-05T04:16:37.812Z,6.00
2023-03-05T04:19:05.909Z,6.00
2023-03-05T04:21:33.653Z,6.00
2023-03-05T04:24:01.940Z,6.00
2023-03-05T04:26:29.634Z,6.00
2023-03-05T04:28:57.706Z,6.00
2023-03-05T04:31:25.506Z,6.00
2023-03-05T04:33:53.586Z,5.90
2023-03-05T04:36:21.671Z,6.00
2023-03-05T04:38:49.682Z,5.90
2023-03-05T04:41:17.673Z,5.90
2023-03-05T04:43:45.919Z,5.90
2023-03-05T04:46:13.743Z,5.90
2023-03-05T04:48:41.956Z,5.80
2023-03-05T04:51:09.690Z,5.80
2023-03-05T04:53:37.995Z,5.80
2023-03-05T04:56:06.362Z,5.80
2023-03-05T04:58:34.331Z,5.80
2023-03-05T05:01:03.481Z,5.80
2023-03-05T05:03:31.875Z,5.80
2023-03-05T05:06:00.939Z,5.80
2023-03-05T05:08:29.674Z,5.80
2023-03-05T05:10:57.424Z,5.80
2023-03-05T05:13:25.947Z,5.70
2023-03-05T05:15:53.736Z,5.80
2023-03-05T05:18:21.985Z,5.70
2023-03-05T05:20:49.853Z,5.70
2023-03-05T05:23:18.272Z,5.70
2023-03-05T05:25:46.275Z,5.80
2023-03-05T05:28:14.276Z,5.70
2023-03-05T05:30:42.068Z,5.70
2023-03-05T05:33:10.199Z,5.70
2023-03-05T05:35:40.007Z,5.70
2023-03-05T05:38:08.169Z,5.70
2023-03-05T05:40:35.883Z,5.70
2023-03-05T05:43:04.102Z,5.60
2023-03-05T05:45:32.659Z,5.60
2023-03-05T05:48:00.855Z,5.60
2023-03-05T05:50:28.802Z,5.60
2023-03-05T05:52:56.813Z,5.60
2023-03-05T05:55:24.620Z,5.60
2023-03-05T05:57:52.647Z,5.60
2023-03-05T06:00:20.735Z,5.60
2023-03-05T06:02:48.992Z,5.50
2023-03-05T06:05:17.037Z,5.60
2023-03-05T06:07:45.169Z,5.60
2023-03-05T06:10:13.298Z,5.60
2023-03-05T06:12:41.427Z,5.60
2023-03-05T06:15:09.830Z,5.60
2023-03-05T06:17:38.113Z,5.50
2023-03-05T06:20:07.061Z,5.50
2023-03-05T06:22:39.396Z,5.50
2023-03-05T06:25:08.406Z,5.50
2023-03-05T06:27:37.156Z,5.50
2023-03-05T06:30:06.126Z,5.50
2023-03-05T06:32:34.381Z,5.50
2023-03-05T06:35:02.176Z,5.40
2023-03-05T06:37:30.204Z,5.40
2023-03-05T06:39:57.958Z,5.40
2023-03-05T06:42:25.990Z,5.40
2023-03-05T06:44:53.710Z,5.40
2023-03-05T06:47:21.706Z,5.40
2023-03-05T06:49:49.474Z,5.40
2023-03-05T06:52:17.600Z,5.40
2023-03-05T06:54:45.566Z,5.40
2023-03-05T06:57:13.979Z,5.40
2023-03-05T06:59:41.684Z,5.40
2023-03-05T07:02:14.308Z,5.40
2023-03-05T07:04:42.341Z,5.40
2023-03-05T07:07:10.799Z,5.40
2023-03-05T07:09:43.712Z,5.40
2023-03-05T07:12:12.046Z,5.40
2023-03-05T07:14:39.765Z,5.40
2023-03-05T07:17:08.245Z,5.40
2023-03-05T07:19:36.107Z,5.40
2023-03-05T07:22:04.050Z,5.40
2023-03-05T07:24:31.915Z,5.40
2023-03-05T07:26:59.927Z,5.40
2023-03-05T07:29:28.375Z,5.30
2023-03-05T07:32:02.310Z,5.30
2023-03-05T07:34:33.373Z,5.30
2023-03-05T07:37:01.362Z,5.40
2023-03-05T07:39:29.114Z,5.40
2023-03-05T07:41:57.146Z,5.40
2023-03-05T07:44:30.924Z,5.40
2023-03-05T07:46:59.014Z,5.40
2023-03-05T07:49:26.732Z,5.40
2023-03-05T07:51:54.836Z,5.50
2023-03-05T07:54:24.990Z,5.50
2023-03-05T07:56:54.731Z,5.50
2023-03-05T07:59:22.485Z,5.50
2023-03-05T08:01:50.665Z,5.50
2023-03-05T08:04:18.431Z,5.60
2023-03-05T08:06:47.147Z,5.60
2023-03-05T08:09:15.129Z,5.60
2023-03-05T08:11:43.635Z,5.60
2023-03-05T08:14:12.088Z,5.70
2023-03-05T08:16:41.077Z,5.70
2023-03-05T08:19:10.728Z,5.70
2023-03-05T08:21:41.655Z,5.70
2023-03-05T08:24:10.776Z,5.70
2023-03-05T08:26:39.534Z,5.70
2023-03-05T08:29:09.423Z,5.80
2023-03-05T08:31:38.263Z,5.80
2023-03-05T08:34:06.609Z,5.80
2023-03-05T08:36:34.730Z,5.80
2023-03-05T08:39:06.925Z,5.80
2023-03-05T08:41:35.175Z,5.80
2023-03-05T08:44:03.699Z,5.80
2023-03-05T08:46:34.957Z,5.80
2023-03-05T08:49:03.277Z,5.90
2023-03-05T08:51:31.347Z,5.90
2023-03-05T08:54:00.038Z,5.90
2023-03-05T08:56:31.116Z,5.90
2023-03-05T08:58:58.863Z,5.90
2023-03-05T09:01:27.845Z,5.90
2023-03-05T09:03:55.738Z,5.90
2023-03-05T09:06:26.133Z,5.90
2023-03-05T09:08:54.588Z,5.90
2023-03-05T09:11:23.262Z,6.00
2023-03-05T09:13:50.986Z,6.00
2023-03-05T09:16:19.903Z,6.00
2023-03-05T09:18:48.095Z,6.10
2023-03-05T09:21:17.569Z,6.10
2023-03-05T09:23:47.361Z,6.20
2023-03-05T09:26:19.094Z,6.20
2023-03-05T09:28:47.455Z,6.30
2023-03-05T09:31:16.164Z,6.30
2023-03-05T09:33:43.970Z,6.30
2023-03-05T09:36:32.210Z,6.40
2023-03-05T09:39:00.052Z,6.40
2023-03-05T09:42:06.047Z,6.40
2023-03-05T09:45:12.553Z,6.50
2023-03-05T09:48:01.878Z,6.40
2023-03-05T09:50:54.333Z,6.50
2023-03-05T09:53:46.815Z,6.50
2023-03-05T09:56:20.545Z,6.50
2023-03-05T09:58:59.779Z,6.60
2023-03-05T10:01:36.148Z,6.60
2023-03-05T10:04:17.832Z,6.70
2023-03-05T10:07:07.904Z,6.70
2023-03-05T10:09:54.415Z,6.80
2023-03-05T10:12:27.835Z,6.80
2023-03-05T10:14:57.177Z,6.80
2023-03-05T10:17:41.555Z,6.80
2023-03-05T10:20:12.307Z,6.80
2023-03-05T10:23:06.242Z,6.90
2023-03-05T10:25:50.347Z,6.90
2023-03-05T10:28:39.859Z,6.90
2023-03-05T10:31:28.528Z,7.00
2023-03-05T10:34:12.631Z,7.00
2023-03-05T10:36:51.870Z,7.00
2023-03-05T10:39:19.740Z,7.10
2023-03-05T10:42:07.895Z,7.10
2023-03-05T10:44:59.788Z,7.10
2023-03-05T10:47:54.085Z,7.20
2023-03-05T10:50:26.234Z,7.20
2023-03-05T10:53:14.097Z,7.30
2023-03-05T10:55:42.300Z,7.30
2023-03-05T10:58:15.467Z,7.30
2023-03-05T11:01:00.355Z,7.30
2023-03-05T11:03:50.582Z,7.30
2023-03-05T11:06:39.118Z,7.30
2023-03-05T11:09:13.102Z,7.30
2023-03-05T11:11:41.412Z,7.40
2023-03-05T11:14:30.837Z,7.40
2023-03-05T11:16:59.330Z,7.50
2023-03-05T11:19:30.036Z,7.50
2023-03-05T11:22:05.906Z,7.60
2023-03-05T11:24:34.032Z,7.60
2023-03-05T11:27:01.872Z,7.60
2023-03-05T11:29:33.074Z,7.70
2023-03-05T11:32:25.385Z,7.70
2023-03-05T11:34:55.085Z,7.70
2023-03-05T11:39:46.854Z,7.70
2023-03-05T11:42:25.369Z,7.70
2023-03-05T11:44:56.020Z,7.80
2023-03-05T11:47:35.936Z,7.80
2023-03-05T11:50:23.122Z,7.80
2023-03-05T11:53:03.808Z,7.90
2023-03-05T11:56:03.526Z,7.90
2023-03-05T11:58:39.283Z,7.90
2023-03-05T12:01:17.465Z,7.90
2023-03-05T12:03:46.655Z,7.90
2023-03-05T12:06:35.729Z,7.80
2023-03-05T12:09:24.011Z,7.80
2023-03-05T12:12:02.422Z,7.80
2023-03-05T12:14:44.730Z,7.80
2023-03-05T12:17:21.406Z,7.80
2023-03-05T12:20:21.785Z,7.70
2023-03-05T12:22:50.675Z,7.70
2023-03-05T12:27:40.148Z,7.80
2023-03-05T12:30:48.772Z,7.80
2023-03-05T12:33:44.101Z,7.70
2023-03-05T12:36:18.010Z,7.70
2023-03-05T12:38:53.397Z,7.70
2023-03-05T12:41:25.852Z,7.70
2023-03-05T12:44:06.936Z,7.80
2023-03-05T12:46:39.497Z,7.80
2023-03-05T12:49:20.239Z,7.90
2023-03-05T12:51:50.640Z,7.80
2023-03-05T12:54:36.455Z,7.80
2023-03-05T12:57:17.238Z,7.70
2023-03-05T13:00:07.746Z,7.70
2023-03-05T13:02:42.959Z,7.60
2023-03-05T13:05:21.791Z,7.60
2023-03-05T13:07:51.203Z,7.50
2023-03-05T13:10:29.698Z,7.40
2023-03-05T13:12:58.622Z,7.40
2023-03-05T13:15:27.007Z,7.30
2023-03-05T13:18:07.562Z,7.30
2023-03-05T13:20:42.827Z,7.40
2023-03-05T13:23:22.117Z,7.40
2023-03-05T13:26:18.899Z,7.50
2023-03-05T13:29:07.760Z,7.50
2023-03-05T13:31:40.520Z,7.60
2023-03-05T13:34:17.119Z,7.60
2023-03-05T13:36:56.058Z,7.70
2023-03-05T13:39:30.397Z,7.70
2023-03-05T13:42:04.616Z,7.70
2023-03-05T13:44:36.874Z,7.60
2023-03-05T13:47:32.083Z,7.70
2023-03-05T13:50:04.987Z,7.60
2023-03-05T13:52:36.006Z,7.60
2023-03-05T13:55:13.142Z,7.50
2023-03-05T13:57:53.084Z,7.50
2023-03-05T14:00:34.562Z,7.50
2023-03-05T14:03:23.449Z,7.50
2023-03-05T14:05:51.678Z,7.50
2023-03-05T14:08:25.750Z,7.50
2023-03-05T14:10:58.856Z,7.50
2023-03-05T14:13:27.876Z,7.40
2023-03-05T14:16:23.710Z,7.40
2023-03-05T14:18:57.400Z,7.40
2023-03-05T14:21:26.032Z,7.40
2023-03-05T14:23:56.597Z,7.30
2023-03-05T14:26:37.784Z,7.30
2023-03-05T14:29:11.859Z,7.30
2023-03-05T14:31:54.170Z,7.30
2023-03-05T14:34:22.064Z,7.20
2023-03-05T14:36:52.400Z,7.10
2023-03-05T14:39:30.833Z,7.10
2023-03-05T14:42:38.953Z,7.10
2023-03-05T14:45:13.493Z,7.00
2023-03-05T14:47:41.910Z,6.90
2023-03-05T14:50:25.112Z,6.90
2023-03-05T14:52:57.697Z,6.90
2023-03-05T14:55:31.083Z,6.90
2023-03-05T14:58:13.447Z,6.80
2023-03-05T15:00:42.652Z,6.80
2023-03-05T15:03:15.508Z,6.80
2023-03-05T15:05:46.046Z,6.80
2023-03-05T15:08:26.439Z,6.80
2023-03-05T15:10:55.367Z,6.80
2023-03-05T15:13:24.470Z,6.80
2023-03-05T15:15:54.687Z,6.80
2023-03-05T15:18:23.801Z,6.80
2023-03-05T15:20:55.348Z,6.80
2023-03-05T15:23:23.858Z,6.80
2023-03-05T15:25:51.716Z,6.80
2023-03-05T15:28:19.892Z,6.80
2023-03-05T15:30:48.008Z,6.80
2023-03-05T15:33:17.889Z,6.80
2023-03-05T15:35:46.200Z,6.80
2023-03-05T15:38:16.193Z,6.70
2023-03-05T15:40:44.315Z,6.70
2023-03-05T15:43:12.854Z,6.70
2023-03-05T15:45:40.933Z,6.70
2023-03-05T15:48:09.499Z,6.70
2023-03-05T15:50:41.501Z,6.60
2023-03-05T15:53:12.407Z,6.60
2023-03-05T15:55:41.146Z,6.60
2023-03-05T15:58:13.182Z,6.60
2023-03-05T16:00:41.224Z,6.60
2023-03-05T16:03:09.429Z,6.60
2023-03-05T16:05:38.159Z,6.60
2023-03-05T16:08:07.686Z,6.60
2023-03-05T16:10:38.956Z,6.60
2023-03-05T16:13:12.483Z,6.60
2023-03-05T16:15:42.010Z,6.60
2023-03-05T16:18:17.971Z,6.70
2023-03-05T16:20:47.797Z,6.70
2023-03-05T16:23:18.908Z,6.80
2023-03-05T16:25:48.118Z,6.80
2023-03-05T16:28:18.155Z,6.80
2023-03-05T16:30:58.184Z,6.80
2023-03-05T16:33:29.068Z,6.80
2023-03-05T16:36:27.129Z,6.80
2023-03-05T16:38:58.548Z,6.80
2023-03-05T16:41:30.233Z,6.70
2023-03-05T16:43:59.636Z,6.70
2023-03-05T16:46:31.615Z,6.70
2023-03-05T16:49:01.596Z,6.70
2023-03-05T16:51:30.262Z,6.80
2023-03-05T16:54:00.664Z,6.80
2023-03-05T16:56:30.247Z,6.80
2023-03-05T16:58:59.671Z,6.70
2023-03-05T17:01:30.456Z,6.70
2023-03-05T17:04:00.303Z,6.70
2023-03-05T17:06:31.159Z,6.70
2023-03-05T17:09:00.225Z,6.60
2023-03-05T17:11:27.954Z,6.60
2023-03-05T17:13:56.603Z,6.60
2023-03-05T17:16:24.451Z,6.50
2023-03-05T17:18:53.994Z,6.50
2023-03-05T17:21:21.868Z,6.50
2023-03-05T17:23:50.083Z,6.40
2023-03-05T17:26:19.680Z,6.40
2023-03-05T17:28:48.763Z,6.50
2023-03-05T17:31:17.101Z,6.50
2023-03-05T17:36:05.159Z,6.50
2023-03-05T17:38:35.972Z,6.40
2023-03-05T17:41:04.011Z,6.40
2023-03-05T17:44:12.652Z,6.40
2023-03-05T17:46:52.085Z,6.50
2023-03-05T17:49:54.463Z,6.50
2023-03-05T17:55:26.753Z,6.50
2023-03-05T17:58:18.275Z,6.50
2023-03-05T18:01:31.786Z,6.50
2023-03-05T18:04:12.307Z,6.50
2023-03-05T18:06:48.131Z,6.50
2023-03-05T18:09:27.034Z,6.40
2023-03-05T18:11:59.127Z,6.50
2023-03-05T18:14:34.674Z,6.40
2023-03-05T18:17:16.361Z,6.40
2023-03-05T18:20:04.214Z,6.50
2023-03-05T18:22:44.773Z,6.40
2023-03-05T18:25:45.095Z,6.40
2023-03-05T18:28:32.630Z,6.40
2023-03-05T18:31:10.301Z,6.40
2023-03-05T18:34:13.033Z,6.40
2023-03-05T18:37:57.263Z,6.40
2023-03-05T18:45:42.328Z,6.40
2023-03-05T18:53:28.704Z,6.40
2023-03-05T18:56:35.477Z,6.40
2023-03-05T18:59:17.267Z,6.40
2023-03-05T19:02:08.295Z,6.40
2023-03-05T19:05:07.481Z,6.40
2023-03-05T19:08:17.439Z,6.40
2023-03-05T19:10:52.469Z,6.40
2023-03-05T19:13:40.235Z,6.30
2023-03-05T19:16:44.325Z,6.30
2023-03-05T19:19:49.872Z,6.30
2023-03-05T19:23:00.647Z,6.30
2023-03-05T19:25:36.481Z,6.30
2023-03-05T19:28:36.726Z,6.30
2023-03-05T19:31:30.648Z,6.30
2023-03-05T19:34:11.698Z,6.20
2023-03-05T19:37:47.860Z,6.20
2023-03-05T19:41:25.660Z,6.20
2023-03-05T19:44:43.527Z,6.30
2023-03-05T19:47:21.093Z,6.30
2023-03-05T19:51:19.798Z,6.30
2023-03-05T19:55:51.463Z,6.30
2023-03-05T20:12:16.868Z,6.20
2023-03-05T20:16:21.998Z,6.20
2023-03-05T20:24:01.897Z,6.20
2023-03-05T20:33:53.215Z,6.20
2023-03-05T20:36:25.840Z,6.20
2023-03-05T20:38:57.060Z,6.20
2023-03-05T20:41:31.864Z,6.20
2023-03-05T20:44:00.758Z,6.20
2023-03-05T20:46:35.337Z,6.20
2023-03-05T20:51:57.000Z,6.20
2023-03-05T20:54:32.498Z,6.20
2023-03-05T20:57:01.661Z,6.20
2023-03-05T20:59:34.774Z,6.20
2023-03-05T21:02:15.957Z,6.10
2023-03-05T21:05:08.981Z,6.10
2023-03-05T21:07:37.911Z,6.10
2023-03-05T21:10:15.317Z,6.10
2023-03-05T21:12:44.928Z,6.10
2023-03-05T21:15:20.352Z,6.10
2023-03-05T21:17:53.034Z,6.20
2023-03-05T21:20:28.014Z,6.10
2023-03-05T21:22:58.968Z,6.10
2023-03-05T21:25:37.622Z,6.10
2023-03-05T21:28:11.601Z,6.10
2023-03-05T21:30:46.168Z,6.10
2023-03-05T21:33:19.370Z,6.10
2023-03-05T21:35:48.381Z,6.10
2023-03-05T21:38:16.497Z,6.10
2023-03-05T21:40:48.585Z,6.10
2023-03-05T21:43:19.274Z,6.10
2023-03-05T21:45:49.582Z,6.10
2023-03-05T21:48:20.412Z,6.10
2023-03-05T21:50:50.344Z,6.10
2023-03-05T21:53:20.837Z,6.10
2023-03-05T21:56:15.768Z,6.10
2023-03-05T21:58:43.912Z,6.10
2023-03-05T22:01:12.831Z,6.00
2023-03-05T22:03:42.086Z,6.00
2023-03-05T22:06:13.096Z,6.00
2023-03-05T22:08:42.580Z,6.00
2023-03-05T22:11:15.228Z,6.10
2023-03-05T22:13:43.443Z,6.10
2023-03-05T22:16:20.136Z,6.10
2023-03-05T22:18:48.166Z,6.10
2023-03-05T22:21:23.210Z,6.10
2023-03-05T22:23:59.618Z,6.10
2023-03-05T22:26:36.194Z,6.10
2023-03-05T22:29:05.474Z,6.10
2023-03-05T22:31:35.314Z,6.00
2023-03-05T22:34:03.743Z,6.00
2023-03-05T22:36:32.475Z,6.00
2023-03-05T22:39:00.784Z,6.00
2023-03-05T22:41:29.523Z,6.00
2023-03-05T22:43:57.679Z,6.00
2023-03-05T22:46:27.547Z,6.00
2023-03-05T22:48:56.815Z,6.00
2023-03-05T22:51:27.561Z,6.00
2023-03-05T22:53:55.947Z,5.90
2023-03-05T22:56:24.640Z,6.00
2023-03-05T22:58:52.777Z,5.90
2023-03-05T23:01:26.107Z,6.00
2023-03-05T23:04:03.664Z,6.00
2023-03-05T23:06:32.172Z,5.90
2023-03-05T23:09:01.520Z,6.00
2023-03-05T23:11:29.783Z,5.90
2023-03-05T23:13:57.726Z,5.90
2023-03-05T23:16:26.024Z,5.90
2023-03-05T23:18:54.554Z,5.90
2023-03-05T23:21:22.848Z,5.80
2023-03-05T23:23:53.195Z,5.90
2023-03-05T23:26:21.836Z,5.90
2023-03-05T23:28:50.035Z,5.90
2023-03-05T23:31:19.262Z,5.90
2023-03-05T23:33:48.664Z,5.90
2023-03-05T23:36:20.032Z,5.90
2023-03-05T23:38:49.290Z,5.90
2023-03-05T23:41:19.376Z,5.90
2023-03-05T23:43:48.100Z,5.80
2023-03-05T23:46:16.465Z,5.80
2023-03-05T23:48:44.380Z,5.80
2023-03-05T23:51:13.051Z,5.80
2023-03-05T23:53:43.162Z,5.80
2023-03-05T23:56:12.018Z,5.80
2023-03-05T23:58:40.071Z,5.80
